Time;durP1;ratioP1;P1;durP2;ratioP2;P2;SDS_P1;SDS_P2;PMS_P1;PMS_P2;Temp;Humidity;BMP_temperature;BMP_pressure;BME280_temperature;BME280_humidity;BME280_pressure;Samples;Min_cycle;Max_cycle;Signal;HPM_P1;HPM_P2
2022/09/14 00:01:40;;;;;;;11.32;4.90;;;15.60;99.90;;;;;;5030775;28;20181;-53
2022/09/14 00:04:11;;;;;;;12.02;5.10;;;15.60;99.90;;;;;;5030649;28;20182;-54
2022/09/14 00:06:38;;;;;;;10.05;4.68;;;15.60;99.90;;;;;;5030450;28;20178;-53
2022/09/14 00:09:07;;;;;;;14.73;5.38;;;15.60;99.90;;;;;;5034445;28;20265;-53
2022/09/14 00:11:34;;;;;;;11.43;5.00;;;15.60;99.90;;;;;;5034248;28;20264;-53
2022/09/14 00:14:01;;;;;;;9.02;5.05;;;15.70;99.90;;;;;;5034427;28;20190;-53
2022/09/14 00:16:32;;;;;;;11.52;5.13;;;15.60;99.90;;;;;;5034312;28;20182;-53
2022/09/14 00:19:05;;;;;;;10.15;5.20;;;15.60;99.90;;;;;;5034045;28;20188;-53
2022/09/14 00:21:37;;;;;;;10.77;5.28;;;15.10;99.90;;;;;;5033654;28;20194;-53
2022/09/14 00:24:05;;;;;;;9.10;5.00;;;15.60;99.90;;;;;;5033156;28;20507;-53
2022/09/14 00:26:32;;;;;;;12.55;5.13;;;15.60;99.90;;;;;;5034333;28;20186;-54
2022/09/14 00:29:03;;;;;;;12.75;5.53;;;15.60;99.90;;;;;;5034235;28;20215;-54
2022/09/14 00:31:30;;;;;;;8.10;5.05;;;15.60;99.90;;;;;;5033643;28;20186;-55
2022/09/14 00:33:56;;;;;;;11.05;4.82;;;15.60;99.90;;;;;;5033887;28;20209;-54
2022/09/14 00:36:27;;;;;;;11.65;5.57;;;15.60;99.90;;;;;;5033587;28;20186;-54
2022/09/14 00:38:55;;;;;;;9.90;5.50;;;15.60;99.90;;;;;;5033770;28;20174;-54
2022/09/14 00:41:24;;;;;;;8.63;5.05;;;15.50;99.90;;;;;;5033743;28;20175;-53
2022/09/14 00:44:11;;;;;;;10.40;5.32;;;15.60;99.90;;;;;;5033947;28;20189;-54
2022/09/14 00:46:39;;;;;;;13.02;5.55;;;15.70;99.90;;;;;;5033951;28;20264;-53
2022/09/14 00:49:28;;;;;;;10.40;5.28;;;15.60;99.90;;;;;;5033634;28;20169;-54
2022/09/14 00:52:22;;;;;;;10.77;4.75;;;15.60;99.90;;;;;;5028735;28;20206;-53
2022/09/14 00:54:56;;;;;;;9.23;5.03;;;15.60;99.90;;;;;;5033446;28;20197;-54
2022/09/14 00:57:23;;;;;;;10.65;5.20;;;15.60;99.90;;;;;;5033514;28;20197;-53
2022/09/14 00:59:51;;;;;;;11.10;4.43;;;15.60;99.90;;;;;;5033573;28;20232;-53
2022/09/14 01:02:19;;;;;;;12.52;4.95;;;15.60;99.90;;;;;;5033480;28;20212;-53
2022/09/14 01:04:46;;;;;;;10.30;4.55;;;15.60;99.90;;;;;;5033122;28;20644;-53
2022/09/14 01:07:24;;;;;;;12.13;4.38;;;15.50;99.90;;;;;;5033222;28;20724;-54
2022/09/14 01:10:06;;;;;;;8.10;4.25;;;15.70;99.90;;;;;;5033286;28;20251;-53
2022/09/14 01:12:50;;;;;;;7.93;3.72;;;15.60;99.90;;;;;;5033194;28;20215;-54
2022/09/14 01:15:26;;;;;;;11.55;4.38;;;15.60;99.90;;;;;;5032981;28;20197;-54
2022/09/14 01:18:00;;;;;;;11.20;4.78;;;15.60;99.90;;;;;;5033278;28;20192;-54
2022/09/14 01:20:52;;;;;;;7.68;3.70;;;15.60;99.90;;;;;;5032151;28;20632;-53
2022/09/14 01:23:26;;;;;;;12.27;4.25;;;15.60;99.90;;;;;;5032464;28;20224;-52
2022/09/14 01:26:22;;;;;;;7.35;3.60;;;15.60;99.90;;;;;;5031978;28;20201;-52
2022/09/14 01:29:16;;;;;;;8.60;3.92;;;15.70;99.90;;;;;;5032787;28;20174;-52
2022/09/14 01:31:55;;;;;;;11.70;3.63;;;15.40;99.90;;;;;;5032613;28;20174;-52
2022/09/14 01:34:30;;;;;;;11.50;3.70;;;15.70;99.90;;;;;;5032626;28;20251;-52
2022/09/14 01:37:17;;;;;;;6.07;3.22;;;15.60;99.90;;;;;;5032226;28;20170;-52
2022/09/14 01:39:50;;;;;;;9.95;3.80;;;14.20;99.90;;;;;;5033001;28;20177;-52
2022/09/14 01:42:19;;;;;;;8.75;3.67;;;15.60;99.90;;;;;;5032609;28;20236;-51
2022/09/14 01:44:50;;;;;;;7.10;3.33;;;15.70;99.90;;;;;;5032609;28;20185;-52
2022/09/14 01:47:41;;;;;;;6.75;3.08;;;15.60;99.90;;;;;;5032639;28;20216;-52
2022/09/14 01:50:14;;;;;;;7.68;3.28;;;15.70;99.90;;;;;;5020133;28;20190;-52
2022/09/14 01:52:46;;;;;;;7.85;3.20;;;15.60;99.90;;;;;;5032432;28;20217;-52
2022/09/14 01:55:32;;;;;;;12.50;3.70;;;15.60;99.90;;;;;;5032545;28;20173;-52
2022/09/14 01:58:09;;;;;;;8.13;4.13;;;15.60;99.90;;;;;;5024979;28;20178;-52
2022/09/14 02:00:40;;;;;;;9.82;4.38;;;15.60;99.90;;;;;;5032186;28;20247;-52
2022/09/14 02:03:14;;;;;;;10.85;4.43;;;15.80;99.90;;;;;;5032353;28;20177;-52
2022/09/14 02:05:57;;;;;;;10.93;5.47;;;15.50;99.90;;;;;;5032021;28;20173;-52
2022/09/14 02:08:28;;;;;;;12.05;5.05;;;15.60;99.90;;;;;;5032064;28;20541;-53
2022/09/14 02:10:56;;;;;;;12.27;6.10;;;15.60;99.90;;;;;;5031759;28;20174;-53
2022/09/14 02:13:22;;;;;;;17.02;6.10;;;15.60;99.90;;;;;;5032116;28;20312;-53
2022/09/14 02:15:47;;;;;;;12.77;5.85;;;15.70;99.90;;;;;;5032158;28;20261;-53
2022/09/14 02:18:13;;;;;;;12.60;6.22;;;15.60;99.90;;;;;;5031839;28;20759;-53
2022/09/14 02:20:57;;;;;;;13.20;7.22;;;15.60;99.90;;;;;;5031668;28;20691;-53
2022/09/14 02:23:23;;;;;;;14.85;7.78;;;15.60;99.90;;;;;;5031511;28;20177;-53
2022/09/14 02:25:49;;;;;;;19.50;8.80;;;15.60;99.90;;;;;;5031671;28;20178;-53
2022/09/14 02:28:15;;;;;;;16.33;8.15;;;15.60;99.90;;;;;;5031430;28;20182;-53
2022/09/14 02:31:01;;;;;;;19.30;8.48;;;15.50;99.90;;;;;;5030591;28;20356;-52
2022/09/14 02:33:38;;;;;;;22.20;9.18;;;15.60;99.90;;;;;;5021017;28;20704;-53
2022/09/14 02:36:41;;;;;;;18.88;10.00;;;15.50;99.90;;;;;;5031371;28;20178;-53
2022/09/14 02:39:42;;;;;;;20.73;10.57;;;15.40;99.90;;;;;;4984345;28;20185;-53
2022/09/14 02:42:58;;;;;;;16.23;10.25;;;15.40;99.90;;;;;;5031599;28;20302;-53
2022/09/14 02:45:40;;;;;;;15.90;9.82;;;15.30;99.90;;;;;;5013839;28;20186;-53
2022/09/14 02:48:20;;;;;;;18.85;10.57;;;15.10;99.90;;;;;;5031466;28;20733;-53
2022/09/14 02:51:01;;;;;;;18.20;10.32;;;15.30;99.90;;;;;;5031383;28;20182;-53
2022/09/14 02:53:50;;;;;;;16.73;10.52;;;14.90;99.90;;;;;;5031296;28;20209;-52
2022/09/14 02:56:16;;;;;;;21.23;10.93;;;15.20;99.90;;;;;;5031099;28;20544;-53
2022/09/14 02:58:43;;;;;;;16.50;11.55;;;15.00;99.90;;;;;;5031218;28;20220;-52
2022/09/14 03:01:13;;;;;;;22.83;11.50;;;15.50;99.90;;;;;;5030850;28;20216;-53
2022/09/14 03:03:39;;;;;;;19.48;11.00;;;15.10;99.90;;;;;;5031126;28;20175;-53
2022/09/14 03:06:05;;;;;;;17.52;11.05;;;15.50;99.90;;;;;;5031094;28;20212;-53
2022/09/14 03:08:31;;;;;;;16.67;11.07;;;15.10;99.90;;;;;;5031222;28;20185;-53
2022/09/14 03:10:57;;;;;;;22.70;12.18;;;15.10;99.90;;;;;;5030842;28;20186;-53
2022/09/14 03:13:23;;;;;;;21.30;11.52;;;15.10;99.90;;;;;;5031082;28;20218;-53
2022/09/14 03:15:49;;;;;;;18.30;11.15;;;15.10;99.90;;;;;;5031111;28;20185;-53
2022/09/14 03:18:15;;;;;;;20.90;12.40;;;15.10;99.90;;;;;;5030896;28;20711;-53
2022/09/14 03:20:41;;;;;;;18.90;11.90;;;15.10;99.90;;;;;;5030539;28;20308;-53
2022/09/14 03:23:10;;;;;;;23.27;12.32;;;14.90;99.90;;;;;;5030140;28;20215;-53
2022/09/14 03:25:41;;;;;;;20.20;11.55;;;14.90;99.90;;;;;;5030785;28;20196;-53
2022/09/14 03:28:07;;;;;;;21.65;11.68;;;15.00;99.90;;;;;;5030484;28;20706;-53
2022/09/14 03:30:33;;;;;;;23.23;11.65;;;15.20;99.90;;;;;;5030685;28;20182;-52
2022/09/14 03:33:00;;;;;;;19.05;11.68;;;14.80;99.90;;;;;;5030495;28;20220;-53
2022/09/14 03:35:29;;;;;;;19.02;11.65;;;15.00;99.90;;;;;;5030813;28;20181;-53
2022/09/14 03:37:55;;;;;;;16.38;11.50;;;15.20;99.90;;;;;;5030259;28;20182;-52
2022/09/14 03:40:20;;;;;;;20.88;10.90;;;15.00;99.90;;;;;;5030870;28;20181;-52
2022/09/14 03:42:48;;;;;;;21.30;11.10;;;15.20;99.90;;;;;;5030336;28;20221;-52
2022/09/14 03:45:15;;;;;;;21.52;11.13;;;15.00;99.90;;;;;;5030603;28;20333;-52
2022/09/14 03:47:42;;;;;;;19.05;11.60;;;14.90;99.90;;;;;;5030428;28;20596;-53
2022/09/14 03:50:09;;;;;;;18.55;10.77;;;14.70;99.90;;;;;;5030546;28;20181;-53
2022/09/14 03:52:36;;;;;;;19.88;11.07;;;14.90;99.90;;;;;;5030232;28;20292;-53
2022/09/14 03:55:03;;;;;;;16.08;10.90;;;14.90;99.90;;;;;;5030527;28;20178;-53
2022/09/14 03:57:29;;;;;;;22.80;11.02;;;14.80;99.90;;;;;;5030698;28;20231;-53
2022/09/14 03:59:55;;;;;;;18.33;11.05;;;14.60;99.90;;;;;;5030455;28;20637;-53
2022/09/14 04:02:20;;;;;;;23.88;11.65;;;14.80;99.90;;;;;;5030409;28;20284;-53
2022/09/14 04:04:49;;;;;;;18.88;11.07;;;14.90;99.90;;;;;;5030318;28;20197;-53
2022/09/14 04:07:15;;;;;;;20.75;10.90;;;14.80;99.90;;;;;;5030136;28;20178;-53
2022/09/14 04:09:42;;;;;;;19.52;10.82;;;14.70;99.90;;;;;;5030330;28;20174;-53
2022/09/14 04:12:08;;;;;;;21.90;11.50;;;14.80;99.90;;;;;;5030109;28;20296;-53
2022/09/14 04:14:33;;;;;;;19.63;11.82;;;14.70;99.90;;;;;;5030446;28;20185;-53
2022/09/14 04:16:59;;;;;;;24.52;11.73;;;14.80;99.90;;;;;;5028993;28;20173;-53
2022/09/14 04:19:25;;;;;;;21.10;11.38;;;14.80;99.90;;;;;;5029925;28;20544;-52
2022/09/14 04:21:50;;;;;;;21.83;11.93;;;14.70;99.90;;;;;;5029877;28;20174;-52
2022/09/14 04:24:16;;;;;;;19.67;10.98;;;14.70;99.90;;;;;;5030198;28;20656;-52
2022/09/14 04:26:43;;;;;;;20.08;11.40;;;17.10;99.90;;;;;;5030233;28;20182;-52
2022/09/14 04:29:10;;;;;;;17.67;11.75;;;14.70;99.90;;;;;;5029970;28;20196;-53
2022/09/14 04:31:35;;;;;;;24.33;12.35;;;14.60;99.90;;;;;;5029816;28;20549;-52
2022/09/14 04:34:02;;;;;;;23.48;11.60;;;14.70;99.90;;;;;;5029822;28;20196;-52
2022/09/14 04:36:29;;;;;;;22.35;11.68;;;14.60;99.90;;;;;;5029953;28;20255;-53
2022/09/14 04:38:57;;;;;;;24.42;11.65;;;14.50;99.90;;;;;;5030267;28;20555;-52
2022/09/14 04:41:23;;;;;;;20.92;11.10;;;14.50;99.90;;;;;;5029683;28;20660;-52
2022/09/14 04:43:50;;;;;;;14.95;11.07;;;14.20;99.90;;;;;;5030345;28;20182;-52
2022/09/14 04:46:20;;;;;;;20.48;11.35;;;14.40;99.90;;;;;;5030182;28;20178;-52
2022/09/14 04:48:46;;;;;;;18.13;11.98;;;14.20;99.90;;;;;;5030077;28;20707;-52
2022/09/14 04:51:18;;;;;;;21.35;12.27;;;14.50;99.90;;;;;;5029848;28;20308;-52
2022/09/14 04:53:49;;;;;;;19.85;12.52;;;13.90;99.90;;;;;;5010451;28;20225;-52
2022/09/14 04:56:16;;;;;;;18.90;12.23;;;14.30;99.90;;;;;;5023641;28;20174;-52
2022/09/14 04:58:45;;;;;;;24.70;12.13;;;14.20;99.90;;;;;;5033711;28;20177;-52
2022/09/14 05:01:13;;;;;;;21.45;11.45;;;14.20;99.90;;;;;;5033175;28;20185;-53
2022/09/14 05:03:39;;;;;;;24.70;12.13;;;14.10;99.90;;;;;;5033184;28;20220;-53
2022/09/14 05:06:11;;;;;;;17.77;11.55;;;13.90;99.90;;;;;;5033373;28;20181;-52
2022/09/14 05:08:38;;;;;;;19.73;11.80;;;14.00;99.90;;;;;;5033328;28;20256;-53
2022/09/14 05:11:05;;;;;;;19.85;11.90;;;13.90;99.90;;;;;;5032987;28;20174;-54
2022/09/14 05:13:31;;;;;;;21.42;11.57;;;14.00;99.90;;;;;;5033331;28;20297;-52
2022/09/14 05:16:09;;;;;;;22.00;12.15;;;14.10;99.90;;;;;;5033044;28;20217;-52
2022/09/14 05:18:35;;;;;;;17.50;11.63;;;13.80;99.90;;;;;;5033274;28;20655;-52
2022/09/14 05:21:06;;;;;;;19.92;11.55;;;13.90;99.90;;;;;;5032923;28;20277;-52
2022/09/14 05:23:32;;;;;;;20.90;11.85;;;14.00;99.90;;;;;;5031887;28;20188;-52
2022/09/14 05:25:59;;;;;;;21.40;12.68;;;13.90;99.90;;;;;;5033027;28;20185;-53
2022/09/14 05:28:25;;;;;;;21.08;11.73;;;13.90;99.90;;;;;;5032578;28;20190;-52
2022/09/14 05:30:52;;;;;;;23.83;11.85;;;13.80;99.90;;;;;;5031912;28;20176;-52
2022/09/14 05:33:18;;;;;;;23.40;11.63;;;13.90;99.90;;;;;;5033088;28;20232;-52
2022/09/14 05:35:44;;;;;;;22.48;12.40;;;13.30;99.90;;;;;;5032291;28;20170;-52
2022/09/14 05:38:09;;;;;;;26.63;12.20;;;13.90;99.90;;;;;;5032658;28;20178;-52
2022/09/14 05:40:35;;;;;;;21.25;12.40;;;13.80;99.90;;;;;;5032673;28;20166;-52
2022/09/14 05:43:01;;;;;;;21.20;11.65;;;13.90;99.90;;;;;;5032423;28;20226;-52
2022/09/14 05:45:26;;;;;;;23.52;11.35;;;13.90;99.90;;;;;;5032643;28;20631;-52
2022/09/14 05:47:52;;;;;;;26.40;10.65;;;13.90;99.90;;;;;;5032778;28;20188;-53
2022/09/14 05:50:17;;;;;;;18.50;10.90;;;13.90;99.90;;;;;;5032267;28;20633;-52
2022/09/14 05:52:43;;;;;;;15.40;9.90;;;13.80;99.90;;;;;;5032454;28;20264;-52
2022/09/14 05:55:09;;;;;;;18.38;10.43;;;13.90;99.90;;;;;;5032162;28;20182;-52
2022/09/14 05:57:34;;;;;;;22.63;10.32;;;13.80;99.90;;;;;;5032420;28;20177;-52
2022/09/14 06:00:00;;;;;;;15.90;9.85;;;13.70;99.90;;;;;;5032322;28;20716;-52
2022/09/14 06:02:26;;;;;;;16.77;10.25;;;13.80;99.90;;;;;;5032128;28;20206;-52
2022/09/14 06:04:52;;;;;;;14.95;9.13;;;13.70;99.90;;;;;;5032079;28;20170;-53
2022/09/14 06:07:17;;;;;;;22.52;11.13;;;13.70;99.90;;;;;;5031779;28;20173;-53
2022/09/14 06:09:43;;;;;;;17.23;9.95;;;13.90;99.90;;;;;;5031797;28;20544;-53
2022/09/14 06:12:09;;;;;;;15.07;9.18;;;;;;;;;;5031925;28;20192;-52
2022/09/14 06:14:35;;;;;;;15.68;9.55;;;13.80;99.90;;;;;;5031944;28;20172;-52
2022/09/14 06:17:01;;;;;;;19.65;9.43;;;11.20;99.90;;;;;;5031775;28;20181;-53
2022/09/14 06:19:27;;;;;;;15.93;8.55;;;13.80;99.90;;;;;;5031658;28;20206;-53
2022/09/14 06:21:53;;;;;;;16.95;8.90;;;13.80;99.90;;;;;;5031968;28;20584;-54
2022/09/14 06:24:18;;;;;;;17.35;9.13;;;13.70;99.90;;;;;;5031257;28;20257;-53
2022/09/14 06:26:44;;;;;;;19.73;9.40;;;13.80;99.90;;;;;;5031588;28;20252;-53
2022/09/14 06:29:10;;;;;;;17.35;9.27;;;13.90;99.90;;;;;;5031688;28;20182;-53
2022/09/14 06:31:35;;;;;;;18.30;8.45;;;13.90;99.90;;;;;;5031651;28;20539;-52
2022/09/14 06:34:01;;;;;;;18.27;8.90;;;13.90;99.90;;;;;;5031855;28;20166;-53
2022/09/14 06:36:27;;;;;;;15.32;8.32;;;14.00;99.90;;;;;;5031161;28;20288;-53
2022/09/14 06:38:53;;;;;;;19.13;8.90;;;14.30;99.90;;;;;;5031823;28;20268;-52
2022/09/14 06:41:29;;;;;;;20.45;10.25;;;14.30;99.90;;;;;;5031095;28;20261;-52
2022/09/14 06:43:56;;;;;;;15.13;8.85;;;13.90;99.90;;;;;;5031611;28;20232;-53
2022/09/14 06:46:28;;;;;;;20.45;9.43;;;14.00;99.90;;;;;;5031486;28;20601;-53
2022/09/14 06:48:55;;;;;;;13.95;7.70;;;14.20;99.90;;;;;;5031605;28;20178;-54
2022/09/14 06:51:42;;;;;;;19.33;9.00;;;14.20;99.90;;;;;;5031147;28;20170;-53
2022/09/14 06:54:09;;;;;;;18.30;9.48;;;14.20;99.90;;;;;;5030836;28;20174;-53
2022/09/14 06:56:39;;;;;;;18.35;9.10;;;14.30;99.90;;;;;;5035291;28;20201;-54
2022/09/14 06:59:07;;;;;;;18.23;8.43;;;14.40;99.90;;;;;;5037620;28;20182;-56
2022/09/14 07:01:33;;;;;;;17.33;8.88;;;14.40;99.90;;;;;;5030432;28;20185;-54
2022/09/14 07:04:00;;;;;;;13.80;8.55;;;14.60;99.90;;;;;;5030592;28;20236;-55
2022/09/14 07:06:28;;;;;;;15.02;7.90;;;14.60;99.90;;;;;;5031156;28;20178;-54
2022/09/14 07:08:54;;;;;;;12.40;7.47;;;14.30;99.90;;;;;;5030042;28;20169;-54
2022/09/14 07:11:24;;;;;;;19.33;7.50;;;14.60;99.90;;;;;;5031010;28;20188;-53
2022/09/14 07:13:51;;;;;;;19.98;7.18;;;14.70;99.90;;;;;;5031049;28;20174;-53
2022/09/14 07:16:17;;;;;;;14.55;6.65;;;14.90;99.90;;;;;;5030321;28;20504;-53
2022/09/14 07:18:43;;;;;;;16.15;6.60;;;15.50;99.90;;;;;;5030594;28;20249;-53
2022/09/14 07:21:14;;;;;;;11.98;5.07;;;14.80;99.90;;;;;;5030582;28;20272;-53
2022/09/14 07:23:42;;;;;;;16.17;5.50;;;14.90;99.90;;;;;;5030728;28;20209;-53
2022/09/14 07:26:25;;;;;;;20.52;7.55;;;14.90;99.90;;;;;;5030743;28;20197;-53
2022/09/14 07:28:59;;;;;;;12.00;4.85;;;14.90;99.90;;;;;;5030904;28;20173;-53
2022/09/14 07:31:27;;;;;;;12.13;5.47;;;14.90;99.90;;;;;;5029626;28;20257;-53
2022/09/14 07:33:56;;;;;;;14.55;5.45;;;14.90;99.90;;;;;;5030779;28;20245;-53
2022/09/14 07:36:24;;;;;;;13.15;4.78;;;15.00;99.90;;;;;;5030481;28;20170;-53
2022/09/14 07:38:50;;;;;;;12.18;4.18;;;15.10;99.90;;;;;;5030494;28;20178;-53
2022/09/14 07:41:15;;;;;;;8.88;4.10;;;15.40;99.90;;;;;;5030064;28;20212;-52
2022/09/14 07:43:41;;;;;;;9.32;3.58;;;15.30;99.90;;;;;;5030469;28;20249;-52
2022/09/14 07:46:07;;;;;;;10.63;3.60;;;15.40;99.90;;;;;;5030580;28;20170;-53
2022/09/14 07:48:34;;;;;;;11.80;3.15;;;15.60;99.90;;;;;;5030499;28;20177;-53
2022/09/14 07:51:07;;;;;;;9.43;2.70;;;15.60;99.90;;;;;;5030657;28;20177;-53
2022/09/14 07:53:41;;;;;;;9.55;3.00;;;15.40;99.90;;;;;;5030193;28;20200;-52
2022/09/14 07:56:09;;;;;;;6.50;2.85;;;15.80;99.90;;;;;;5030520;28;20184;-52
2022/09/14 07:58:35;;;;;;;6.40;2.38;;;15.70;99.90;;;;;;5030338;28;20178;-53
2022/09/14 08:01:06;;;;;;;6.93;2.75;;;15.70;99.90;;;;;;5030640;28;20174;-50
2022/09/14 08:03:32;;;;;;;7.47;2.67;;;15.80;99.90;;;;;;5029720;28;20208;-51
2022/09/14 08:06:06;;;;;;;8.80;2.47;;;15.70;99.90;;;;;;5029685;28;20178;-51
2022/09/14 08:08:37;;;;;;;7.43;2.22;;;15.90;99.90;;;;;;5030204;28;20177;-51
2022/09/14 08:11:10;;;;;;;8.65;2.38;;;15.90;99.90;;;;;;5029623;28;20208;-51
2022/09/14 08:13:37;;;;;;;8.35;2.50;;;15.90;99.90;;;;;;5030541;28;20223;-51
2022/09/14 08:16:04;;;;;;;10.07;3.30;;;15.70;99.90;;;;;;5030424;28;20186;-51
2022/09/14 08:18:32;;;;;;;9.55;2.88;;;15.90;99.90;;;;;;5030641;28;20195;-51
2022/09/14 08:21:11;;;;;;;5.55;2.72;;;15.90;99.90;;;;;;5028989;28;20646;-50
2022/09/14 08:23:38;;;;;;;8.07;2.70;;;15.90;99.90;;;;;;5030290;28;20210;-51
2022/09/14 08:26:05;;;;;;;18.02;3.17;;;16.00;99.90;;;;;;5030022;28;20174;-50
2022/09/14 08:28:31;;;;;;;11.27;3.25;;;16.00;99.90;;;;;;5031795;28;20299;-51
2022/09/14 08:31:19;;;;;;;10.25;2.60;;;16.40;99.90;;;;;;5033870;28;20281;-51
2022/09/14 08:33:50;;;;;;;10.95;3.25;;;16.40;99.90;;;;;;5034165;28;20173;-51
2022/09/14 08:36:18;;;;;;;6.40;2.50;;;16.50;99.90;;;;;;5034164;28;20202;-50
2022/09/14 08:38:44;;;;;;;7.05;2.90;;;17.50;99.90;;;;;;5034037;28;20170;-51
2022/09/14 08:41:42;;;;;;;9.43;2.97;;;17.70;99.90;;;;;;5034075;28;20185;-51
2022/09/14 08:44:10;;;;;;;10.80;2.67;;;19.60;99.90;;;;;;5032964;28;20211;-51
2022/09/14 08:46:58;;;;;;;12.18;2.90;;;19.80;99.90;;;;;;5033814;28;20479;-51
2022/09/14 08:49:43;;;;;;;16.15;3.15;;;20.30;99.90;;;;;;5020757;28;20185;-51
2022/09/14 08:52:32;;;;;;;8.52;2.40;;;20.60;99.90;;;;;;5014066;28;20630;-51
2022/09/14 08:55:00;;;;;;;11.93;3.72;;;20.80;99.90;;;;;;5014111;28;20221;-52
2022/09/14 08:57:42;;;;;;;12.15;3.40;;;20.90;99.90;;;;;;5027333;28;20498;-52
2022/09/14 09:00:21;;;;;;;7.05;3.42;;;20.50;99.90;;;;;;5033101;28;20177;-52
2022/09/14 09:03:35;;;;;;;10.27;4.60;;;20.30;99.90;;;;;;5013786;28;20246;-52
2022/09/14 09:06:17;;;;;;;9.68;3.47;;;20.00;99.90;;;;;;4977424;28;20199;-51
2022/09/14 09:09:07;;;;;;;13.23;4.00;;;20.30;99.90;;;;;;5024071;28;20181;-52
2022/09/14 09:11:40;;;;;;;9.77;4.95;;;20.70;99.90;;;;;;5033541;28;20236;-52
2022/09/14 09:14:22;;;;;;;9.05;4.70;;;22.20;99.90;;;;;;5033404;28;20193;-51
2022/09/14 09:16:52;;;;;;;11.82;5.10;;;23.70;99.90;;;;;;5033445;28;20177;-52
2022/09/14 09:19:37;;;;;;;10.98;4.90;;;23.60;99.90;;;;;;5033484;28;20560;-51
2022/09/14 09:22:04;;;;;;;11.27;5.47;;;24.30;99.90;;;;;;5033133;28;20174;-51
2022/09/14 09:24:39;;;;;;;13.23;5.90;;;24.50;99.90;;;;;;5032628;28;20170;-51
2022/09/14 09:27:12;;;;;;;13.20;6.07;;;23.30;99.90;;;;;;5033263;28;20177;-51
2022/09/14 09:29:38;;;;;;;13.98;6.45;;;23.30;99.90;;;;;;5033289;28;20186;-51
2022/09/14 09:32:10;;;;;;;12.10;6.10;;;23.70;99.90;;;;;;5032771;28;20590;-52
2022/09/14 09:34:35;;;;;;;11.48;5.38;;;23.70;99.90;;;;;;5013265;28;20185;-51
2022/09/14 09:37:01;;;;;;;11.95;5.68;;;23.60;99.90;;;;;;5018026;28;20186;-51
2022/09/14 09:39:29;;;;;;;12.75;5.72;;;25.00;99.90;;;;;;5031970;28;20185;-52
2022/09/14 09:42:12;;;;;;;18.83;6.38;;;24.90;99.90;;;;;;5029228;28;20224;-51
2022/09/14 09:45:13;;;;;;;12.25;6.05;;;25.60;99.90;;;;;;5031956;28;20186;-51
2022/09/14 09:47:40;;;;;;;12.50;5.63;;;26.50;99.90;;;;;;4951791;29;20198;-51
2022/09/14 09:50:12;;;;;;;16.52;6.13;;;26.30;99.90;;;;;;5001045;28;20748;-51
2022/09/14 09:52:47;;;;;;;14.57;6.53;;;26.30;99.90;;;;;;5014331;28;20197;-52
2022/09/14 09:55:21;;;;;;;12.00;6.78;;;26.60;99.90;;;;;;5031436;28;20183;-52
2022/09/14 09:57:47;;;;;;;14.68;6.68;;;;;;;;;;5032186;28;20173;-52
2022/09/14 10:00:21;;;;;;;13.80;6.30;;;26.50;99.90;;;;;;5032456;28;20649;-52
2022/09/14 10:02:47;;;;;;;12.45;6.72;;;27.60;99.90;;;;;;5032435;28;20280;-52
2022/09/14 10:05:13;;;;;;;21.33;6.05;;;26.20;99.90;;;;;;5032583;28;20180;-52
2022/09/14 10:08:04;;;;;;;26.05;6.22;;;25.80;99.90;;;;;;5032423;28;20170;-52
2022/09/14 10:10:38;;;;;;;13.75;6.15;;;26.70;99.90;;;;;;5032348;28;20691;-52
2022/09/14 10:13:05;;;;;;;10.55;6.30;;;27.00;99.90;;;;;;5032374;28;20233;-52
2022/09/14 10:15:37;;;;;;;11.38;5.38;;;27.10;99.90;;;;;;5032337;28;20177;-52
2022/09/14 10:18:12;;;;;;;10.32;6.47;;;27.50;99.90;;;;;;5032104;28;20227;-52
2022/09/14 10:20:41;;;;;;;11.45;6.00;;;28.00;99.90;;;;;;5032097;28;20631;-52
2022/09/14 10:23:19;;;;;;;12.25;6.00;;;28.70;99.90;;;;;;5031885;28;20676;-52
2022/09/14 10:25:46;;;;;;;12.43;6.20;;;28.50;99.90;;;;;;5032069;28;20177;-52
2022/09/14 10:28:22;;;;;;;12.73;5.85;;;28.30;99.90;;;;;;5032449;28;20170;-52
2022/09/14 10:30:54;;;;;;;12.38;5.72;;;28.50;99.90;;;;;;5031975;28;20218;-52
2022/09/14 10:33:20;;;;;;;13.43;6.07;;;28.70;99.90;;;;;;5031757;28;20217;-52
2022/09/14 10:36:11;;;;;;;14.93;6.13;;;29.00;99.90;;;;;;5031945;28;20252;-52
2022/09/14 10:38:37;;;;;;;11.48;4.72;;;27.90;99.90;;;;;;5031768;28;20212;-52
2022/09/14 10:41:25;;;;;;;8.02;4.75;;;28.20;99.90;;;;;;5031753;28;20165;-52
2022/09/14 10:44:20;;;;;;;13.82;5.68;;;28.40;99.90;;;;;;5031867;28;20193;-52
2022/09/14 10:47:18;;;;;;;9.65;5.07;;;29.10;99.90;;;;;;5031607;28;20200;-52
2022/09/14 10:50:09;;;;;;;11.50;5.63;;;28.90;99.90;;;;;;4998346;28;20181;-51
2022/09/14 10:52:51;;;;;;;15.55;7.35;;;28.30;99.90;;;;;;5030511;28;20201;-52
2022/09/14 10:55:45;;;;;;;12.90;5.88;;;27.00;99.90;;;;;;5031493;28;20180;-51
2022/09/14 10:58:32;;;;;;;14.75;5.70;;;26.40;99.90;;;;;;5005608;28;20192;-51
2022/09/14 11:01:13;;;;;;;12.52;6.13;;;25.40;99.90;;;;;;5031282;28;20644;-51
2022/09/14 11:04:00;;;;;;;13.50;6.20;;;25.70;99.90;;;;;;5031195;28;20531;-52
2022/09/14 11:06:48;;;;;;;9.73;5.32;;;26.10;99.90;;;;;;5031343;28;20185;-52
2022/09/14 11:09:53;;;;;;;13.65;4.82;;;27.70;99.90;;;;;;5031379;28;20257;-52
2022/09/14 11:12:42;;;;;;;12.20;5.40;;;27.90;99.90;;;;;;5028039;28;20213;-52
2022/09/14 11:15:17;;;;;;;10.65;5.50;;;26.90;99.90;;;;;;5031011;28;20210;-51
2022/09/14 11:17:46;;;;;;;10.48;5.45;;;26.20;99.90;;;;;;5031214;28;20497;-51
2022/09/14 11:20:31;;;;;;;11.23;5.18;;;26.10;99.90;;;;;;5031000;28;20166;-51
2022/09/14 11:23:22;;;;;;;12.82;4.40;;;26.50;99.90;;;;;;5030694;28;20257;-51
2022/09/14 11:26:10;;;;;;;12.80;5.28;;;27.20;99.90;;;;;;5030928;28;20490;-51
2022/09/14 11:28:57;;;;;;;10.02;5.35;;;27.90;99.90;;;;;;5021353;28;20231;-51
2022/09/14 11:31:36;;;;;;;10.63;4.47;;;28.70;99.90;;;;;;5030952;28;20169;-51
2022/09/14 11:34:32;;;;;;;9.43;4.72;;;29.40;99.90;;;;;;5031063;28;20240;-51
2022/09/14 11:37:07;;;;;;;8.55;4.22;;;29.90;99.90;;;;;;5030749;28;20706;-52
2022/09/14 11:39:42;;;;;;;9.45;3.95;;;29.90;99.90;;;;;;5030788;28;20173;-51
2022/09/14 11:42:28;;;;;;;10.30;4.28;;;29.50;99.90;;;;;;5030610;28;20307;-51
2022/09/14 11:45:02;;;;;;;10.00;4.18;;;30.20;99.90;;;;;;5030824;28;20556;-52
2022/09/14 11:47:38;;;;;;;11.40;3.92;;;30.60;99.90;;;;;;5030669;28;20177;-52
2022/09/14 11:50:24;;;;;;;12.23;4.40;;;30.90;99.90;;;;;;5030803;28;20164;-52
2022/09/14 11:53:09;;;;;;;10.15;4.47;;;30.80;99.90;;;;;;5030470;28;20240;-51
2022/09/14 11:55:40;;;;;;;8.88;4.13;;;30.90;99.90;;;;;;5030606;28;20243;-52
2022/09/14 11:58:14;;;;;;;9.77;4.55;;;31.20;99.90;;;;;;5030587;28;20166;-52
2022/09/14 12:01:24;;;;;;;9.35;4.40;;;30.80;99.90;;;;;;5030505;28;20628;-52
2022/09/14 12:04:10;;;;;;;11.57;4.47;;;30.30;99.90;;;;;;5032594;28;20187;-52
2022/09/14 12:06:35;;;;;;;13.55;4.75;;;30.80;99.90;;;;;;5034060;28;20189;-51
2022/09/14 12:09:16;;;;;;;11.38;4.00;;;31.30;99.90;;;;;;5034846;28;20185;-51
2022/09/14 12:11:58;;;;;;;12.23;4.40;;;31.00;99.90;;;;;;5034572;28;20643;-52
2022/09/14 12:14:27;;;;;;;11.02;4.03;;;30.80;99.90;;;;;;5034738;28;20207;-51
2022/09/14 12:17:26;;;;;;;8.85;4.28;;;31.20;99.90;;;;;;5034557;28;20197;-52
2022/09/14 12:19:58;;;;;;;9.60;3.95;;;31.50;99.90;;;;;;5033734;28;20667;-51
2022/09/14 12:22:36;;;;;;;11.23;4.25;;;31.70;99.90;;;;;;5033921;28;20419;-51
2022/09/14 12:25:07;;;;;;;9.02;4.40;;;32.30;99.90;;;;;;5034371;28;20655;-51
2022/09/14 12:27:36;;;;;;;8.63;4.40;;;31.40;99.90;;;;;;5034388;28;20173;-51
2022/09/14 12:30:40;;;;;;;13.63;4.97;;;30.20;99.90;;;;;;5034475;28;20165;-51
2022/09/14 12:33:31;;;;;;;9.00;4.20;;;30.00;99.90;;;;;;5033334;28;20220;-51
2022/09/14 12:35:57;;;;;;;11.80;4.60;;;30.10;99.90;;;;;;5034063;28;20174;-52
2022/09/14 12:38:28;;;;;;;9.20;4.60;;;30.30;99.90;;;;;;5033434;28;20627;-51
2022/09/14 12:41:20;;;;;;;11.13;5.00;;;29.90;99.90;;;;;;5033665;28;20166;-51
2022/09/14 12:43:49;;;;;;;13.30;4.88;;;30.30;99.90;;;;;;5010625;28;20197;-51
2022/09/14 12:46:20;;;;;;;8.82;3.95;;;29.90;99.90;;;;;;5033215;28;20165;-51
2022/09/14 12:48:46;;;;;;;13.05;3.90;;;30.10;99.90;;;;;;5033822;28;20174;-51
2022/09/14 12:54:08;;;;;;;10.93;3.80;;;30.80;99.90;;;;;;5033479;28;20611;-51
2022/09/14 12:56:39;;;;;;;10.27;3.80;;;31.00;99.90;;;;;;5033117;28;20176;-52
2022/09/14 12:59:23;;;;;;;9.50;4.10;;;31.60;99.90;;;;;;5033149;28;20231;-52
2022/09/14 13:02:16;;;;;;;8.82;3.78;;;31.60;99.90;;;;;;5032986;28;20551;-52
2022/09/14 13:04:44;;;;;;;10.23;3.70;;;31.70;99.90;;;;;;5024609;28;20627;-52
2022/09/14 13:07:18;;;;;;;10.65;3.90;;;31.00;99.90;;;;;;5014845;28;20655;-51
2022/09/14 13:09:56;;;;;;;10.13;3.67;;;31.20;99.90;;;;;;5033485;28;20180;-51